createdAt,value
2018-10-01T00:04:29.375Z,8.23
2018-10-01T00:09:32.704Z,5.50
2018-10-01T00:14:36.212Z,7.27
2018-10-01T00:19:44.840Z,5.43
2018-10-01T00:24:48.193Z,6.40
2018-10-01T00:29:52.005Z,5.50
2018-10-01T00:34:56.066Z,4.77
2018-10-01T00:39:59.462Z,5.47
2018-10-01T00:45:02.941Z,5.97
2018-10-01T00:50:06.364Z,5.70
2018-10-01T00:55:09.745Z,6.00
2018-10-01T01:00:13.204Z,4.93
2018-10-01T01:05:16.512Z,4.15
2018-10-01T01:10:19.873Z,5.53
2018-10-01T01:15:23.172Z,5.57
2018-10-01T01:20:26.504Z,5.10
2018-10-01T01:25:29.829Z,6.07
2018-10-01T01:30:33.143Z,5.37
2018-10-01T01:35:36.490Z,7.00
2018-10-01T01:40:39.785Z,5.47
2018-10-01T01:45:43.094Z,6.63
2018-10-01T01:50:46.396Z,4.83
2018-10-01T01:55:49.725Z,3.90
2018-10-01T02:00:53.045Z,4.17
2018-10-01T02:05:56.388Z,3.93
2018-10-01T02:10:59.706Z,6.25
2018-10-01T02:16:03.097Z,7.27
2018-10-01T02:21:06.457Z,4.70
2018-10-01T02:26:09.768Z,6.70
2018-10-01T02:31:13.074Z,5.50
2018-10-01T02:36:16.407Z,5.30
2018-10-01T02:41:19.760Z,5.17
2018-10-01T02:46:23.099Z,5.07
2018-10-01T02:51:26.418Z,5.53
2018-10-01T02:56:29.732Z,5.97
2018-10-01T03:01:33.084Z,4.23
2018-10-01T03:06:36.405Z,6.70
2018-10-01T03:11:39.892Z,6.28
2018-10-01T03:16:43.260Z,4.83
2018-10-01T03:21:46.569Z,6.73
2018-10-01T03:26:49.891Z,5.55
2018-10-01T03:31:53.204Z,6.80
2018-10-01T03:36:56.601Z,7.33
2018-10-01T03:41:59.928Z,8.90
2018-10-01T03:47:03.255Z,6.00
2018-10-01T03:52:06.573Z,6.10
2018-10-01T03:57:10.200Z,5.00
2018-10-01T04:02:13.490Z,4.73
2018-10-01T04:07:16.806Z,5.57
2018-10-01T04:12:20.126Z,6.30
2018-10-01T04:17:23.449Z,7.67
2018-10-01T04:22:32.160Z,5.07
2018-10-01T04:27:35.900Z,6.73
2018-10-01T04:32:39.246Z,5.00
2018-10-01T04:37:42.571Z,4.03
2018-10-01T04:42:45.917Z,4.03
2018-10-01T04:47:49.227Z,5.97
2018-10-01T04:52:52.540Z,5.37
2018-10-01T04:57:55.852Z,5.93
2018-10-01T05:02:59.164Z,5.23
2018-10-01T05:08:02.469Z,6.80
2018-10-01T05:13:05.782Z,5.33
2018-10-01T05:18:09.111Z,6.53
2018-10-01T05:23:12.424Z,5.10
2018-10-01T05:28:15.861Z,4.70
2018-10-01T05:33:19.195Z,5.07
2018-10-01T05:38:22.508Z,4.50
2018-10-01T05:43:25.852Z,5.40
2018-10-01T05:48:29.159Z,4.90
2018-10-01T05:53:33.335Z,4.97
2018-10-01T05:58:36.660Z,10.77
2018-10-01T06:03:39.980Z,7.50
2018-10-01T06:08:43.344Z,7.43
2018-10-01T06:13:46.633Z,7.27
2018-10-01T06:18:49.936Z,8.18
2018-10-01T06:23:53.248Z,7.13
2018-10-01T06:28:56.544Z,8.23
2018-10-01T06:33:59.816Z,6.50
2018-10-01T06:39:03.113Z,5.73
2018-10-01T06:44:06.416Z,6.43
2018-10-01T06:49:09.693Z,9.27
2018-10-01T06:54:12.977Z,6.50
2018-10-01T06:59:16.279Z,8.33
2018-10-01T07:04:19.562Z,12.33
2018-10-01T07:09:22.841Z,9.40
2018-10-01T07:14:26.113Z,6.97
2018-10-01T07:19:29.414Z,11.37
2018-10-01T07:24:32.704Z,11.03
2018-10-01T07:29:35.984Z,9.13
2018-10-01T07:34:39.332Z,9.87
2018-10-01T07:39:42.617Z,7.90
2018-10-01T07:44:45.969Z,9.03
2018-10-01T07:49:49.208Z,8.37
2018-10-01T07:54:52.497Z,12.80
2018-10-01T07:59:55.952Z,7.53
2018-10-01T08:04:59.125Z,10.13
2018-10-01T08:10:02.415Z,8.07
2018-10-01T08:15:06.076Z,8.67
2018-10-01T08:20:09.456Z,10.07
2018-10-01T08:25:12.709Z,9.13
2018-10-01T08:30:16.005Z,8.20
2018-10-01T08:35:19.286Z,10.63
2018-10-01T08:40:22.589Z,8.30
2018-10-01T08:45:25.875Z,13.90
2018-10-01T08:50:34.615Z,7.93
2018-10-01T08:55:37.897Z,10.07
2018-10-01T09:00:41.187Z,12.37
2018-10-01T09:05:44.456Z,8.27
2018-10-01T09:10:47.742Z,10.50
2018-10-01T09:15:51.029Z,16.00
2018-10-01T09:20:54.332Z,14.43
2018-10-01T09:25:57.667Z,13.47
2018-10-01T09:31:01.033Z,9.67
2018-10-01T09:36:04.288Z,17.43
2018-10-01T09:41:07.596Z,11.97
2018-10-01T09:46:10.991Z,15.03
2018-10-01T09:51:14.296Z,11.33
2018-10-01T09:56:17.641Z,13.23
2018-10-01T10:01:20.911Z,14.93
2018-10-01T10:06:24.213Z,10.50
2018-10-01T10:11:27.535Z,11.37
2018-10-01T10:16:30.858Z,14.30
2018-10-01T10:21:34.100Z,12.70
2018-10-01T10:26:37.465Z,8.93
2018-10-01T10:31:40.703Z,11.27
2018-10-01T10:36:43.980Z,10.23
2018-10-01T10:41:47.609Z,11.57
2018-10-01T10:46:50.808Z,7.20
2018-10-01T10:51:55.148Z,10.53
2018-10-01T10:56:58.469Z,19.50
2018-10-01T11:02:02.259Z,11.67
2018-10-01T11:07:05.585Z,9.27
2018-10-01T11:12:08.901Z,10.53
2018-10-01T11:17:12.184Z,7.23
2018-10-01T11:22:15.486Z,5.47
2018-10-01T11:27:18.928Z,6.00
2018-10-01T11:32:22.096Z,5.70
2018-10-01T11:37:25.380Z,4.53
2018-10-01T11:42:28.692Z,4.60
2018-10-01T11:47:31.975Z,5.90
2018-10-01T11:52:35.251Z,4.80
2018-10-01T11:57:38.594Z,5.53
2018-10-01T12:02:41.865Z,5.63
2018-10-01T12:07:45.349Z,4.70
2018-10-01T12:12:48.672Z,3.73
2018-10-01T12:17:51.944Z,5.43
2018-10-01T12:22:55.220Z,4.43
2018-10-01T12:27:58.497Z,4.90
2018-10-01T12:33:01.799Z,6.77
2018-10-01T12:38:05.082Z,5.93
2018-10-01T12:43:08.388Z,4.40
2018-10-01T12:48:11.686Z,8.90
2018-10-01T12:53:15.143Z,7.03
2018-10-01T12:58:18.453Z,8.83
2018-10-01T13:03:28.100Z,6.60
2018-10-01T13:08:31.403Z,9.13
2018-10-01T13:13:34.688Z,6.60
2018-10-01T13:18:38.078Z,5.03
2018-10-01T13:23:41.353Z,8.93
2018-10-01T13:28:44.641Z,7.27
2018-10-01T13:33:47.924Z,7.57
2018-10-01T13:38:51.422Z,9.23
2018-10-01T13:43:54.798Z,5.03
2018-10-01T13:48:58.114Z,5.70
2018-10-01T13:54:01.590Z,6.50
2018-10-01T13:59:04.932Z,4.30
2018-10-01T14:04:08.789Z,2.53
2018-10-01T14:09:12.585Z,7.70
2018-10-01T14:14:15.888Z,6.13
2018-10-01T14:19:19.380Z,8.77
2018-10-01T14:24:22.549Z,4.87
2018-10-01T14:29:25.901Z,9.07
2018-10-01T14:34:29.240Z,7.97
2018-10-01T14:39:32.596Z,8.57
2018-10-01T14:44:35.852Z,7.40
2018-10-01T14:49:39.164Z,6.67
2018-10-01T14:54:43.101Z,5.80
2018-10-01T14:59:46.408Z,5.60
2018-10-01T15:04:49.782Z,7.90
2018-10-01T15:09:53.056Z,8.03
2018-10-01T15:14:56.343Z,8.47
2018-10-01T15:19:59.729Z,7.33
2018-10-01T15:25:03.906Z,7.93
2018-10-01T15:30:07.445Z,11.07
2018-10-01T15:35:10.744Z,9.03
2018-10-01T15:40:14.231Z,3.40
2018-10-01T15:45:17.543Z,1.90
2018-10-01T15:50:20.832Z,3.12
2018-10-01T15:55:24.117Z,2.53
2018-10-01T16:00:27.425Z,2.10
2018-10-01T16:05:30.787Z,2.77
2018-10-01T16:10:34.111Z,1.63
2018-10-01T16:15:37.425Z,1.37
2018-10-01T16:20:40.704Z,2.90
2018-10-01T16:25:44.022Z,2.00
2018-10-01T16:30:47.312Z,1.93
2018-10-01T16:35:50.621Z,2.30
2018-10-01T16:40:53.949Z,3.97
2018-10-01T16:45:57.591Z,2.43
2018-10-01T16:51:00.905Z,2.50
2018-10-01T16:56:04.339Z,2.23
2018-10-01T17:01:07.711Z,1.73
2018-10-01T17:06:11.023Z,2.63
2018-10-01T17:11:14.324Z,2.50
2018-10-01T17:16:17.631Z,3.17
2018-10-01T17:21:20.997Z,4.03
2018-10-01T17:26:24.343Z,4.20
2018-10-01T17:31:27.642Z,2.60
2018-10-01T17:36:31.001Z,0.90
2018-10-01T17:41:34.311Z,1.67
2018-10-01T17:46:37.638Z,1.80
2018-10-01T17:51:41.555Z,2.50
2018-10-01T17:56:44.880Z,3.10
2018-10-01T18:01:48.163Z,0.83
2018-10-01T18:06:51.473Z,1.70
2018-10-01T18:11:54.944Z,1.40
2018-10-01T18:16:58.464Z,1.47
2018-10-01T18:22:01.926Z,1.77
2018-10-01T18:27:05.437Z,1.20
2018-10-01T18:32:08.957Z,4.17
2018-10-01T18:37:12.409Z,1.97
2018-10-01T18:42:15.742Z,2.33
2018-10-01T18:47:19.178Z,0.60
2018-10-01T18:52:22.471Z,0.93
2018-10-01T18:57:25.877Z,0.97
2018-10-01T19:02:29.241Z,2.70
2018-10-01T19:07:32.728Z,1.47
2018-10-01T19:12:36.049Z,1.83
2018-10-01T19:17:39.414Z,2.00
2018-10-01T19:22:42.804Z,1.77
2018-10-01T19:27:46.104Z,6.93
2018-10-01T19:32:49.405Z,1.63
2018-10-01T19:37:52.796Z,2.20
2018-10-01T19:42:56.121Z,2.53
2018-10-01T19:47:59.453Z,1.83
2018-10-01T19:53:02.826Z,2.13
2018-10-01T19:58:06.189Z,1.77
2018-10-01T20:03:09.553Z,1.50
2018-10-01T20:08:12.872Z,1.50
2018-10-01T20:13:16.221Z,2.17
2018-10-01T20:18:19.586Z,2.73
2018-10-01T20:23:23.155Z,2.53
2018-10-01T20:28:26.679Z,1.13
2018-10-01T20:33:29.935Z,0.95
2018-10-01T20:38:33.261Z,0.80
2018-10-01T20:43:36.576Z,1.73
2018-10-01T20:48:39.980Z,1.70
2018-10-01T20:53:43.396Z,1.03
2018-10-01T20:58:46.690Z,1.20
2018-10-01T21:03:49.968Z,1.50
2018-10-01T21:08:53.296Z,1.67
2018-10-01T21:13:56.611Z,0.73
2018-10-01T21:18:59.960Z,2.57
2018-10-01T21:24:03.388Z,2.73
2018-10-01T21:29:06.812Z,1.10
2018-10-01T21:34:10.200Z,3.33
2018-10-01T21:39:23.230Z,1.63
2018-10-01T21:44:26.564Z,0.83
2018-10-01T21:49:29.888Z,0.97
2018-10-01T21:54:33.217Z,1.73
2018-10-01T21:59:36.540Z,2.27
2018-10-01T22:04:39.868Z,2.10
2018-10-01T22:09:43.182Z,0.93
2018-10-01T22:14:46.490Z,2.07
2018-10-01T22:19:49.809Z,2.10
2018-10-01T22:24:53.204Z,1.33
2018-10-01T22:29:56.576Z,5.20
2018-10-01T22:34:59.933Z,2.77
2018-10-01T22:40:03.513Z,2.03
2018-10-01T22:45:07.041Z,3.53
2018-10-01T22:50:10.393Z,2.92
2018-10-01T22:55:13.877Z,3.20
2018-10-01T23:00:17.196Z,2.03
2018-10-01T23:05:20.512Z,3.10
2018-10-01T23:10:23.812Z,3.80
2018-10-01T23:15:27.119Z,4.13
2018-10-01T23:20:30.414Z,2.77
2018-10-01T23:25:33.712Z,1.83
2018-10-01T23:30:37.040Z,2.93
2018-10-01T23:35:40.383Z,3.27
2018-10-01T23:40:43.919Z,2.87
2018-10-01T23:45:47.235Z,4.00
2018-10-01T23:50:50.531Z,3.90
2018-10-01T23:55:53.829Z,1.90
